Bookmark and Share
Track history (hours):
 

Thomson Majesty

Last reported at 2014-Apr-23 05:15 UTC. Time now 2014-Apr-24 07:36 UTC.
Position N 37°32' W 000°59'.

Length 207 m; draft 6.2 m.

Type: Passenger vessel. MMSI: 248124000.

NotesDate/timePositionNaut miles runAvg speedWind from/ knotsBaromVisibWave heightAir tempDewpointWater temp
2014-Apr-23 05:15N 37°32' W 000°59'1213.6
2014-Apr-23 04:21N 37°31' W 000°43'911.7
2014-Apr-23 03:33N 37°35' W 000°33'1212.2
2014-Apr-23 02:33N 37°46' W 000°24'1211.9
2014-Apr-23 01:33N 37°56' W 000°16'1211.4
2014-Apr-23 00:30N 38°05' W 000°08'5410.7
2014-Apr-22 19:26N 38°56' E 000°16'43 2.5
2014-Apr-22 02:07N 39°19' E 001°02'1017.7
2014-Apr-22 01:33N 39°18' E 001°15'1716.5
2014-Apr-22 00:33N 39°15' E 001°36'1817.7
2014-Apr-21 23:33N 39°12' E 001°59'1616.1
2014-Apr-21 22:33N 39°10' E 002°19'1212.2
2014-Apr-21 21:33N 39°08' E 002°35'1716.6
2014-Apr-21 20:33N 39°05' E 002°56'1716.6
2014-Apr-21 19:33N 39°13' E 003°15'1615.8
2014-Apr-21 18:33N 39°22' E 003°32'1716.8
2014-Apr-21 17:33N 39°32' E 003°50'56 4.6
2014-Apr-21 05:23N 40°17' E 004°33'1617.6
2014-Apr-21 04:28N 40°32' E 004°40'1314.0
2014-Apr-21 03:34N 40°44' E 004°46'1613.5
2014-Apr-21 02:20N 40°59' E 004°54'2613.4
2014-Apr-21 00:25N 41°23' E 005°06'1313.7
2014-Apr-20 23:30N 41°35' E 005°12'1213.2
2014-Apr-20 22:33N 41°47' E 005°18'1414.1
2014-Apr-20 21:32N 42°00' E 005°25'1414.0
2014-Apr-20 20:32N 42°13' E 005°32'1414.3
2014-Apr-20 19:33N 42°26' E 005°39'1413.7
2014-Apr-20 18:33N 42°39' E 005°45'1413.9
2014-Apr-20 17:34N 42°52' E 005°52'1313.3
2014-Apr-20 16:34N 43°05' E 005°58'3 2.6
2014-Apr-20 15:33N 43°07' E 005°56'0 0.0
2014-Apr-20 14:33N 43°07' E 005°56'0 0.0
2014-Apr-20 13:33N 43°07' E 005°56'0 0.0
2014-Apr-20 12:33N 43°07' E 005°56'0 0.0
2014-Apr-20 11:33N 43°07' E 005°56'0 0.0
2014-Apr-20 10:33N 43°07' E 005°56'0 0.0
2014-Apr-20 09:33N 43°07' E 005°56'0 0.0
2014-Apr-20 08:33N 43°07' E 005°56'0 0.2
2014-Apr-20 07:33N 43°07' E 005°56'7 6.7
2014-Apr-20 06:34N 43°01' E 005°52'1514.9
2014-Apr-20 05:33N 42°53' E 005°35'1312.6
2014-Apr-20 04:33N 42°46' E 005°20'1312.8
2014-Apr-20 03:33N 42°40' E 005°05'1414.1
2014-Apr-20 02:33N 42°32' E 004°49'1414.0
2014-Apr-20 01:33N 42°25' E 004°33'1413.9
2014-Apr-20 00:33N 42°17' E 004°17'1413.9
2014-Apr-19 23:33N 42°10' E 004°01'1313.2
2014-Apr-19 22:33N 42°03' E 003°46'1413.8
2014-Apr-19 21:33N 41°56' E 003°30'1414.0
2014-Apr-19 20:34N 41°48' E 003°14'1514.7
2014-Apr-19 19:33N 41°41' E 002°57'1313.6
2014-Apr-19 18:34N 41°33' E 002°42'1413.8
2014-Apr-19 17:33N 41°26' E 002°26'12 1.3
2014-Apr-19 08:19N 41°22' E 002°11'0 0.0
2014-Apr-19 07:31N 41°22' E 002°11'0 0.2
2014-Apr-19 06:33N 41°22' E 002°11'7 7.2
2014-Apr-19 05:33N 41°15' E 002°12'1716.9
2014-Apr-19 04:34N 41°00' E 002°00'1616.3
2014-Apr-19 03:33N 40°46' E 001°50'1716.8
2014-Apr-19 02:34N 40°31' E 001°41'1717.2
2014-Apr-19 01:33N 40°15' E 001°31'1818.0
2014-Apr-19 00:34N 39°59' E 001°22'1414.2
2014-Apr-18 23:33N 39°46' E 001°13'1413.4
2014-Apr-18 22:30N 39°33' E 001°05'1313.6
2014-Apr-18 21:32N 39°22' E 000°57'1313.6
2014-Apr-18 20:33N 39°10' E 000°48'1514.3
2014-Apr-18 19:32N 38°57' E 000°40'1713.6
2014-Apr-18 18:15N 38°42' E 000°29'1013.6
2014-Apr-18 17:34N 38°34' E 000°22'1614.1
2014-Apr-18 16:25N 38°22' E 000°09'1214.0
2014-Apr-18 15:33N 38°12' W 000°00'1818.4
2014-Apr-18 14:33N 37°56' W 000°12'10 9.1
2014-Apr-18 13:31N 37°48' W 000°18'1313.4
2014-Apr-18 12:33N 37°37' W 000°27'1312.7
2014-Apr-18 11:32N 37°28' W 000°39'1212.6
2014-Apr-18 10:33N 37°19' W 000°50'1813.0
2014-Apr-18 09:10N 37°07' W 001°05'813.4
2014-Apr-18 08:33N 37°01' W 001°13'1413.4
2014-Apr-18 07:32N 36°52' W 001°26'14012.7
2014-Apr-17 20:33N 36°40' W 004°20'4 0.3
2014-Apr-17 03:04N 36°42' W 004°25'612.5
2014-Apr-17 02:33N 36°36' W 004°23'37 5.8
2014-Apr-16 20:09N 36°12' W 004°58'711.4
2014-Apr-16 19:33N 36°08' W 005°05'1312.6
2014-Apr-16 18:33N 36°05' W 005°20'4 3.9
2014-Apr-16 17:32N 36°09' W 005°22'0 0.0
2014-Apr-16 16:32N 36°09' W 005°22'0 0.0
2014-Apr-16 15:32N 36°09' W 005°22'0 0.0
2014-Apr-16 14:32N 36°09' W 005°22'0 0.0
2014-Apr-16 13:29N 36°09' W 005°22'0 0.0
2014-Apr-16 12:32N 36°09' W 005°22'0 0.0
2014-Apr-16 11:32N 36°09' W 005°22'0 0.0
2014-Apr-16 10:32N 36°09' W 005°22'0 0.0
2014-Apr-16 09:32N 36°09' W 005°22'0 0.0
2014-Apr-16 08:32N 36°09' W 005°22'0 0.0
2014-Apr-16 07:32N 36°09' W 005°22'0 0.0
2014-Apr-16 06:32N 36°09' W 005°22'0 0.2
2014-Apr-16 05:33N 36°09' W 005°22'7 6.7
2014-Apr-16 04:33N 36°02' W 005°23'1313.0
2014-Apr-16 03:33N 35°56' W 005°37'1513.8
2014-Apr-16 02:26N 35°58' W 005°56'41 5.7
2014-Apr-15 19:13N 36°27' W 006°32'811.3
2014-Apr-15 18:29N 36°33' W 006°24'96 1.9
2014-Apr-13 16:33N 36°36' W 008°24'1414.2
2014-Apr-13 15:33N 36°50' W 008°28'1413.7
2014-Apr-13 14:33N 37°03' W 008°32'5 4.4
2014-Apr-13 13:32N 37°08' W 008°32'0 0.0
2014-Apr-13 12:32N 37°08' W 008°32'0 0.0
2014-Apr-13 11:32N 37°08' W 008°32'0 0.0
2014-Apr-13 10:32N 37°08' W 008°32'0 0.0
2014-Apr-13 09:20N 37°08' W 008°32'0 0.0
2014-Apr-13 08:26N 37°08' W 008°32'0 0.0
2014-Apr-13 07:26N 37°08' W 008°32'0 0.0
2014-Apr-13 06:26N 37°08' W 008°32'7 7.7
2014-Apr-13 05:34N 37°01' W 008°34'  

Dump ship's entire track history

sailing weather and tide predictions

Thomson Majesty — 9HA2188 — position and weather